sensor_id;sensor_type;location;lat;lon;timestamp;P1;durP1;ratioP1;P2;durP2;ratioP2
7231;SDS011;3657;49.630;11.018;2023-10-09T00:01:02;25.00;;;24.20;;
7231;SDS011;3657;49.630;11.018;2023-10-09T00:03:31;24.43;;;23.63;;
7231;SDS011;3657;49.630;11.018;2023-10-09T00:06:01;25.47;;;24.53;;
7231;SDS011;3657;49.630;11.018;2023-10-09T00:08:29;26.23;;;25.43;;
7231;SDS011;3657;49.630;11.018;2023-10-09T00:10:57;26.30;;;25.50;;
7231;SDS011;3657;49.630;11.018;2023-10-09T00:13:38;25.87;;;25.17;;
7231;SDS011;3657;49.630;11.018;2023-10-09T00:16:14;24.37;;;23.70;;
7231;SDS011;3657;49.630;11.018;2023-10-09T00:18:49;24.67;;;23.87;;
7231;SDS011;3657;49.630;11.018;2023-10-09T00:21:19;25.57;;;24.83;;
7231;SDS011;3657;49.630;11.018;2023-10-09T00:23:48;26.60;;;25.80;;
7231;SDS011;3657;49.630;11.018;2023-10-09T00:26:20;24.73;;;23.93;;
7231;SDS011;3657;49.630;11.018;2023-10-09T00:28:50;25.03;;;24.23;;
7231;SDS011;3657;49.630;11.018;2023-10-09T00:31:20;25.13;;;24.33;;
7231;SDS011;3657;49.630;11.018;2023-10-09T00:33:56;23.13;;;22.43;;
7231;SDS011;3657;49.630;11.018;2023-10-09T00:36:32;23.57;;;22.90;;
7231;SDS011;3657;49.630;11.018;2023-10-09T00:39:14;25.60;;;24.80;;
7231;SDS011;3657;49.630;11.018;2023-10-09T00:41:48;24.97;;;24.27;;
7231;SDS011;3657;49.630;11.018;2023-10-09T00:44:15;27.70;;;26.67;;
7231;SDS011;3657;49.630;11.018;2023-10-09T00:46:41;25.50;;;24.63;;
7231;SDS011;3657;49.630;11.018;2023-10-09T00:49:09;24.50;;;23.80;;
7231;SDS011;3657;49.630;11.018;2023-10-09T00:51:36;24.27;;;23.67;;
7231;SDS011;3657;49.630;11.018;2023-10-09T00:54:21;24.57;;;23.87;;
7231;SDS011;3657;49.630;11.018;2023-10-09T00:56:52;24.50;;;23.60;;
7231;SDS011;3657;49.630;11.018;2023-10-09T00:59:23;26.93;;;26.13;;
7231;SDS011;3657;49.630;11.018;2023-10-09T01:01:51;24.90;;;24.20;;
7231;SDS011;3657;49.630;11.018;2023-10-09T01:04:24;25.97;;;25.17;;
7231;SDS011;3657;49.630;11.018;2023-10-09T01:06:53;28.10;;;26.90;;
7231;SDS011;3657;49.630;11.018;2023-10-09T01:09:33;24.80;;;24.03;;
7231;SDS011;3657;49.630;11.018;2023-10-09T01:12:03;26.07;;;25.00;;
7231;SDS011;3657;49.630;11.018;2023-10-09T01:14:30;24.80;;;24.10;;
7231;SDS011;3657;49.630;11.018;2023-10-09T01:17:01;24.00;;;23.20;;
7231;SDS011;3657;49.630;11.018;2023-10-09T01:19:30;25.20;;;24.40;;
7231;SDS011;3657;49.630;11.018;2023-10-09T01:21:58;25.10;;;24.30;;
7231;SDS011;3657;49.630;11.018;2023-10-09T01:24:31;26.07;;;25.30;;
7231;SDS011;3657;49.630;11.018;2023-10-09T01:27:03;26.13;;;25.33;;
7231;SDS011;3657;49.630;11.018;2023-10-09T01:29:36;26.57;;;25.67;;
7231;SDS011;3657;49.630;11.018;2023-10-09T01:32:06;25.47;;;24.53;;
7231;SDS011;3657;49.630;11.018;2023-10-09T01:34:41;25.13;;;24.33;;
7231;SDS011;3657;49.630;11.018;2023-10-09T01:37:10;29.90;;;28.50;;
7231;SDS011;3657;49.630;11.018;2023-10-09T01:39:44;26.47;;;25.57;;
7231;SDS011;3657;49.630;11.018;2023-10-09T01:42:13;26.40;;;25.70;;
7231;SDS011;3657;49.630;11.018;2023-10-09T01:44:48;26.40;;;25.40;;
7231;SDS011;3657;49.630;11.018;2023-10-09T01:47:15;30.77;;;29.40;;
7231;SDS011;3657;49.630;11.018;2023-10-09T01:49:44;26.23;;;25.43;;
7231;SDS011;3657;49.630;11.018;2023-10-09T01:52:14;27.00;;;25.80;;
7231;SDS011;3657;49.630;11.018;2023-10-09T01:54:42;27.33;;;26.53;;
7231;SDS011;3657;49.630;11.018;2023-10-09T01:57:13;27.30;;;26.40;;
7231;SDS011;3657;49.630;11.018;2023-10-09T01:59:46;26.27;;;25.57;;
7231;SDS011;3657;49.630;11.018;2023-10-09T02:02:14;28.60;;;27.47;;
7231;SDS011;3657;49.630;11.018;2023-10-09T02:04:51;27.70;;;26.90;;
7231;SDS011;3657;49.630;11.018;2023-10-09T02:07:19;27.83;;;26.70;;
7231;SDS011;3657;49.630;11.018;2023-10-09T02:09:55;26.73;;;25.73;;
7231;SDS011;3657;49.630;11.018;2023-10-09T02:12:22;27.03;;;26.23;;
7231;SDS011;3657;49.630;11.018;2023-10-09T02:14:49;26.80;;;25.90;;
7231;SDS011;3657;49.630;11.018;2023-10-09T02:17:19;27.70;;;26.90;;
7231;SDS011;3657;49.630;11.018;2023-10-09T02:19:49;25.33;;;24.57;;
7231;SDS011;3657;49.630;11.018;2023-10-09T02:22:17;25.50;;;24.80;;
7231;SDS011;3657;49.630;11.018;2023-10-09T02:24:44;25.30;;;24.57;;
7231;SDS011;3657;49.630;11.018;2023-10-09T02:27:24;25.73;;;24.87;;
7231;SDS011;3657;49.630;11.018;2023-10-09T02:30:11;27.27;;;26.47;;
7231;SDS011;3657;49.630;11.018;2023-10-09T02:33:05;25.37;;;24.67;;
7231;SDS011;3657;49.630;11.018;2023-10-09T02:35:34;25.00;;;24.17;;
7231;SDS011;3657;49.630;11.018;2023-10-09T02:38:04;30.47;;;29.20;;
7231;SDS011;3657;49.630;11.018;2023-10-09T02:40:33;29.13;;;27.90;;
7231;SDS011;3657;49.630;11.018;2023-10-09T02:43:06;28.00;;;27.10;;
7231;SDS011;3657;49.630;11.018;2023-10-09T02:45:37;28.17;;;27.17;;
7231;SDS011;3657;49.630;11.018;2023-10-09T02:48:16;26.93;;;26.13;;
7231;SDS011;3657;49.630;11.018;2023-10-09T02:50:45;27.57;;;26.67;;
7231;SDS011;3657;49.630;11.018;2023-10-09T02:53:15;26.90;;;26.10;;
7231;SDS011;3657;49.630;11.018;2023-10-09T02:55:44;29.93;;;28.73;;
7231;SDS011;3657;49.630;11.018;2023-10-09T02:58:29;26.97;;;26.17;;
7231;SDS011;3657;49.630;11.018;2023-10-09T03:00:57;26.03;;;25.13;;
7231;SDS011;3657;49.630;11.018;2023-10-09T03:03:26;26.80;;;26.00;;
7231;SDS011;3657;49.630;11.018;2023-10-09T03:05:53;27.47;;;26.37;;
7231;SDS011;3657;49.630;11.018;2023-10-09T03:08:19;26.77;;;25.97;;
7231;SDS011;3657;49.630;11.018;2023-10-09T03:10:46;26.13;;;25.47;;
7231;SDS011;3657;49.630;11.018;2023-10-09T03:13:13;28.07;;;27.03;;
7231;SDS011;3657;49.630;11.018;2023-10-09T03:15:44;26.27;;;25.30;;
7231;SDS011;3657;49.630;11.018;2023-10-09T03:18:13;26.60;;;25.70;;
7231;SDS011;3657;49.630;11.018;2023-10-09T03:20:41;27.70;;;26.90;;
7231;SDS011;3657;49.630;11.018;2023-10-09T03:23:09;26.43;;;25.63;;
7231;SDS011;3657;49.630;11.018;2023-10-09T03:25:39;26.57;;;25.73;;
7231;SDS011;3657;49.630;11.018;2023-10-09T03:28:10;25.90;;;25.10;;
7231;SDS011;3657;49.630;11.018;2023-10-09T03:30:37;26.23;;;25.37;;
7231;SDS011;3657;49.630;11.018;2023-10-09T03:33:05;26.97;;;26.17;;
7231;SDS011;3657;49.630;11.018;2023-10-09T03:35:32;27.37;;;26.47;;
7231;SDS011;3657;49.630;11.018;2023-10-09T03:38:00;25.83;;;25.13;;
7231;SDS011;3657;49.630;11.018;2023-10-09T03:40:36;24.20;;;23.40;;
7231;SDS011;3657;49.630;11.018;2023-10-09T03:43:04;25.90;;;25.13;;
7231;SDS011;3657;49.630;11.018;2023-10-09T03:45:31;26.43;;;25.53;;
7231;SDS011;3657;49.630;11.018;2023-10-09T03:48:00;24.60;;;23.90;;
7231;SDS011;3657;49.630;11.018;2023-10-09T03:50:34;25.03;;;24.23;;
7231;SDS011;3657;49.630;11.018;2023-10-09T03:53:04;24.67;;;24.00;;
7231;SDS011;3657;49.630;11.018;2023-10-09T03:55:33;24.80;;;24.00;;
7231;SDS011;3657;49.630;11.018;2023-10-09T03:58:03;24.03;;;23.43;;
7231;SDS011;3657;49.630;11.018;2023-10-09T04:00:31;25.47;;;24.70;;
7231;SDS011;3657;49.630;11.018;2023-10-09T04:03:09;25.03;;;24.23;;
7231;SDS011;3657;49.630;11.018;2023-10-09T04:05:36;25.90;;;25.00;;
7231;SDS011;3657;49.630;11.018;2023-10-09T04:08:07;25.10;;;24.30;;
7231;SDS011;3657;49.630;11.018;2023-10-09T04:10:37;26.33;;;25.47;;
7231;SDS011;3657;49.630;11.018;2023-10-09T04:13:16;25.50;;;24.80;;
7231;SDS011;3657;49.630;11.018;2023-10-09T04:15:47;25.90;;;24.87;;
7231;SDS011;3657;49.630;11.018;2023-10-09T04:18:18;26.60;;;25.70;;
7231;SDS011;3657;49.630;11.018;2023-10-09T04:20:53;26.20;;;25.10;;
7231;SDS011;3657;49.630;11.018;2023-10-09T04:23:44;28.17;;;26.80;;
7231;SDS011;3657;49.630;11.018;2023-10-09T04:26:35;28.23;;;27.07;;
7231;SDS011;3657;49.630;11.018;2023-10-09T04:29:02;26.27;;;25.13;;
7231;SDS011;3657;49.630;11.018;2023-10-09T04:31:31;24.40;;;23.40;;
7231;SDS011;3657;49.630;11.018;2023-10-09T04:34:02;27.33;;;26.33;;
7231;SDS011;3657;49.630;11.018;2023-10-09T04:36:52;27.70;;;26.70;;
7231;SDS011;3657;49.630;11.018;2023-10-09T04:39:23;27.27;;;26.27;;
7231;SDS011;3657;49.630;11.018;2023-10-09T04:42:02;27.20;;;26.30;;
7231;SDS011;3657;49.630;11.018;2023-10-09T04:44:45;27.80;;;26.80;;
7231;SDS011;3657;49.630;11.018;2023-10-09T04:47:44;26.20;;;25.33;;
7231;SDS011;3657;49.630;11.018;2023-10-09T04:50:23;26.43;;;25.50;;
7231;SDS011;3657;49.630;11.018;2023-10-09T04:53:07;25.63;;;24.73;;
7231;SDS011;3657;49.630;11.018;2023-10-09T04:55:49;26.90;;;25.90;;
7231;SDS011;3657;49.630;11.018;2023-10-09T04:58:22;27.27;;;26.30;;
7231;SDS011;3657;49.630;11.018;2023-10-09T05:00:50;23.37;;;22.67;;
7231;SDS011;3657;49.630;11.018;2023-10-09T05:03:37;24.93;;;24.13;;
7231;SDS011;3657;49.630;11.018;2023-10-09T05:06:09;25.03;;;24.20;;
7231;SDS011;3657;49.630;11.018;2023-10-09T05:09:07;26.47;;;25.60;;
7231;SDS011;3657;49.630;11.018;2023-10-09T05:11:36;25.77;;;24.83;;
7231;SDS011;3657;49.630;11.018;2023-10-09T05:14:16;24.60;;;23.90;;
7231;SDS011;3657;49.630;11.018;2023-10-09T05:16:51;23.30;;;22.70;;
7231;SDS011;3657;49.630;11.018;2023-10-09T05:19:29;24.47;;;23.77;;
7231;SDS011;3657;49.630;11.018;2023-10-09T05:21:59;24.53;;;23.73;;
7231;SDS011;3657;49.630;11.018;2023-10-09T05:24:32;24.70;;;23.73;;
7231;SDS011;3657;49.630;11.018;2023-10-09T05:27:10;23.83;;;23.10;;
7231;SDS011;3657;49.630;11.018;2023-10-09T05:30:07;24.63;;;23.73;;
7231;SDS011;3657;49.630;11.018;2023-10-09T05:32:51;24.93;;;24.20;;
7231;SDS011;3657;49.630;11.018;2023-10-09T05:35:20;23.20;;;22.60;;
7231;SDS011;3657;49.630;11.018;2023-10-09T05:37:55;25.00;;;24.30;;
7231;SDS011;3657;49.630;11.018;2023-10-09T05:40:27;24.63;;;23.87;;
7231;SDS011;3657;49.630;11.018;2023-10-09T05:42:57;24.87;;;24.03;;
7231;SDS011;3657;49.630;11.018;2023-10-09T05:45:24;24.93;;;24.07;;
7231;SDS011;3657;49.630;11.018;2023-10-09T05:48:24;23.47;;;22.73;;
7231;SDS011;3657;49.630;11.018;2023-10-09T05:51:27;23.93;;;23.13;;
7231;SDS011;3657;49.630;11.018;2023-10-09T05:54:09;23.60;;;22.70;;
7231;SDS011;3657;49.630;11.018;2023-10-09T05:56:54;24.17;;;23.47;;
7231;SDS011;3657;49.630;11.018;2023-10-09T05:59:49;25.87;;;24.87;;
7231;SDS011;3657;49.630;11.018;2023-10-09T06:02:33;25.20;;;24.40;;
7231;SDS011;3657;49.630;11.018;2023-10-09T06:05:18;22.93;;;22.27;;
7231;SDS011;3657;49.630;11.018;2023-10-09T06:08:01;22.97;;;22.37;;
7231;SDS011;3657;49.630;11.018;2023-10-09T06:10:31;24.33;;;23.63;;
7231;SDS011;3657;49.630;11.018;2023-10-09T06:13:05;25.40;;;24.60;;
7231;SDS011;3657;49.630;11.018;2023-10-09T06:15:36;24.07;;;23.27;;
7231;SDS011;3657;49.630;11.018;2023-10-09T06:18:16;23.83;;;23.13;;
7231;SDS011;3657;49.630;11.018;2023-10-09T06:20:58;25.47;;;24.60;;
7231;SDS011;3657;49.630;11.018;2023-10-09T06:23:33;23.47;;;22.73;;
7231;SDS011;3657;49.630;11.018;2023-10-09T06:26:17;25.70;;;24.80;;
7231;SDS011;3657;49.630;11.018;2023-10-09T06:28:50;24.00;;;23.13;;
7231;SDS011;3657;49.630;11.018;2023-10-09T06:31:37;23.63;;;22.80;;
7231;SDS011;3657;49.630;11.018;2023-10-09T06:34:22;24.97;;;24.17;;
7231;SDS011;3657;49.630;11.018;2023-10-09T06:36:57;25.53;;;24.73;;
7231;SDS011;3657;49.630;11.018;2023-10-09T06:39:30;25.90;;;25.00;;
7231;SDS011;3657;49.630;11.018;2023-10-09T06:42:14;31.70;;;30.20;;
7231;SDS011;3657;49.630;11.018;2023-10-09T06:44:55;27.67;;;26.47;;
7231;SDS011;3657;49.630;11.018;2023-10-09T06:47:22;28.23;;;26.67;;
7231;SDS011;3657;49.630;11.018;2023-10-09T06:49:49;26.70;;;25.73;;
7231;SDS011;3657;49.630;11.018;2023-10-09T06:52:29;25.97;;;25.07;;
7231;SDS011;3657;49.630;11.018;2023-10-09T06:55:11;27.70;;;26.60;;
7231;SDS011;3657;49.630;11.018;2023-10-09T06:57:44;27.40;;;26.40;;
7231;SDS011;3657;49.630;11.018;2023-10-09T07:00:14;27.20;;;26.00;;
7231;SDS011;3657;49.630;11.018;2023-10-09T07:02:59;27.53;;;26.33;;
7231;SDS011;3657;49.630;11.018;2023-10-09T07:05:36;27.83;;;26.67;;
7231;SDS011;3657;49.630;11.018;2023-10-09T07:08:22;28.03;;;27.13;;
7231;SDS011;3657;49.630;11.018;2023-10-09T07:10:58;29.27;;;27.77;;
7231;SDS011;3657;49.630;11.018;2023-10-09T07:13:46;29.30;;;28.03;;
7231;SDS011;3657;49.630;11.018;2023-10-09T07:16:21;31.33;;;29.27;;
7231;SDS011;3657;49.630;11.018;2023-10-09T07:18:53;30.07;;;28.53;;
7231;SDS011;3657;49.630;11.018;2023-10-09T07:21:20;29.40;;;28.07;;
7231;SDS011;3657;49.630;11.018;2023-10-09T07:23:54;29.47;;;27.83;;
7231;SDS011;3657;49.630;11.018;2023-10-09T07:26:24;28.63;;;27.60;;
7231;SDS011;3657;49.630;11.018;2023-10-09T07:29:02;27.60;;;26.37;;
7231;SDS011;3657;49.630;11.018;2023-10-09T07:31:41;27.83;;;26.80;;
7231;SDS011;3657;49.630;11.018;2023-10-09T07:34:11;25.57;;;24.17;;
7231;SDS011;3657;49.630;11.018;2023-10-09T07:36:55;27.97;;;26.97;;
7231;SDS011;3657;49.630;11.018;2023-10-09T07:39:22;31.63;;;30.33;;
7231;SDS011;3657;49.630;11.018;2023-10-09T07:42:00;32.50;;;31.17;;
7231;SDS011;3657;49.630;11.018;2023-10-09T07:44:40;35.77;;;33.93;;
7231;SDS011;3657;49.630;11.018;2023-10-09T07:47:18;26.97;;;26.07;;
7231;SDS011;3657;49.630;11.018;2023-10-09T07:49:59;26.10;;;25.20;;
7231;SDS011;3657;49.630;11.018;2023-10-09T07:52:27;28.47;;;27.17;;
7231;SDS011;3657;49.630;11.018;2023-10-09T07:54:54;31.67;;;30.00;;
7231;SDS011;3657;49.630;11.018;2023-10-09T07:57:30;31.33;;;30.03;;
7231;SDS011;3657;49.630;11.018;2023-10-09T08:00:04;32.77;;;31.07;;
7231;SDS011;3657;49.630;11.018;2023-10-09T08:02:59;30.83;;;29.13;;
7231;SDS011;3657;49.630;11.018;2023-10-09T08:05:28;32.93;;;31.13;;
7231;SDS011;3657;49.630;11.018;2023-10-09T08:07:59;28.27;;;26.93;;
7231;SDS011;3657;49.630;11.018;2023-10-09T08:10:51;32.70;;;30.70;;
7231;SDS011;3657;49.630;11.018;2023-10-09T08:13:37;27.23;;;25.90;;
7231;SDS011;3657;49.630;11.018;2023-10-09T08:16:21;27.33;;;26.03;;
7231;SDS011;3657;49.630;11.018;2023-10-09T08:18:49;29.93;;;28.00;;
7231;SDS011;3657;49.630;11.018;2023-10-09T08:21:16;33.03;;;30.40;;
7231;SDS011;3657;49.630;11.018;2023-10-09T08:24:04;32.13;;;30.33;;
7231;SDS011;3657;49.630;11.018;2023-10-09T08:26:43;28.13;;;27.03;;
7231;SDS011;3657;49.630;11.018;2023-10-09T08:29:17;31.03;;;29.37;;
7231;SDS011;3657;49.630;11.018;2023-10-09T08:31:44;31.80;;;29.73;;
7231;SDS011;3657;49.630;11.018;2023-10-09T08:34:11;27.03;;;25.93;;
7231;SDS011;3657;49.630;11.018;2023-10-09T08:36:49;30.37;;;28.83;;
7231;SDS011;3657;49.630;11.018;2023-10-09T08:39:18;29.33;;;27.73;;
7231;SDS011;3657;49.630;11.018;2023-10-09T08:41:51;25.80;;;24.67;;
7231;SDS011;3657;49.630;11.018;2023-10-09T08:44:24;31.23;;;29.67;;
7231;SDS011;3657;49.630;11.018;2023-10-09T08:46:55;37.20;;;35.03;;
7231;SDS011;3657;49.630;11.018;2023-10-09T08:49:22;38.03;;;35.57;;
7231;SDS011;3657;49.630;11.018;2023-10-09T08:51:49;38.00;;;35.40;;
7231;SDS011;3657;49.630;11.018;2023-10-09T08:54:17;34.03;;;31.43;;
7231;SDS011;3657;49.630;11.018;2023-10-09T08:56:44;33.03;;;30.93;;
7231;SDS011;3657;49.630;11.018;2023-10-09T08:59:15;30.50;;;28.97;;
7231;SDS011;3657;49.630;11.018;2023-10-09T09:01:45;35.33;;;32.67;;
7231;SDS011;3657;49.630;11.018;2023-10-09T09:04:33;35.97;;;33.70;;
7231;SDS011;3657;49.630;11.018;2023-10-09T09:07:01;33.30;;;31.37;;
7231;SDS011;3657;49.630;11.018;2023-10-09T09:09:29;36.83;;;34.33;;
7231;SDS011;3657;49.630;11.018;2023-10-09T09:11:57;34.63;;;32.37;;
7231;SDS011;3657;49.630;11.018;2023-10-09T09:14:35;32.83;;;31.23;;
7231;SDS011;3657;49.630;11.018;2023-10-09T09:17:04;33.67;;;31.80;;
7231;SDS011;3657;49.630;11.018;2023-10-09T09:19:36;33.70;;;31.83;;
7231;SDS011;3657;49.630;11.018;2023-10-09T09:22:04;36.33;;;33.70;;
7231;SDS011;3657;49.630;11.018;2023-10-09T09:24:40;34.73;;;32.47;;
7231;SDS011;3657;49.630;11.018;2023-10-09T09:27:25;36.77;;;34.03;;
7231;SDS011;3657;49.630;11.018;2023-10-09T09:30:22;30.63;;;28.97;;
7231;SDS011;3657;49.630;11.018;2023-10-09T09:32:51;38.97;;;35.60;;
7231;SDS011;3657;49.630;11.018;2023-10-09T09:35:32;34.90;;;31.97;;
7231;SDS011;3657;49.630;11.018;2023-10-09T09:37:59;35.80;;;33.53;;
7231;SDS011;3657;49.630;11.018;2023-10-09T09:40:29;35.63;;;33.53;;
7231;SDS011;3657;49.630;11.018;2023-10-09T09:42:59;33.77;;;31.90;;
7231;SDS011;3657;49.630;11.018;2023-10-09T09:45:31;31.30;;;29.63;;
7231;SDS011;3657;49.630;11.018;2023-10-09T09:48:00;27.57;;;26.27;;
7231;SDS011;3657;49.630;11.018;2023-10-09T09:50:31;38.03;;;35.27;;
7231;SDS011;3657;49.630;11.018;2023-10-09T09:52:58;31.13;;;29.33;;
7231;SDS011;3657;49.630;11.018;2023-10-09T09:55:26;37.67;;;35.50;;
7231;SDS011;3657;49.630;11.018;2023-10-09T09:58:00;31.47;;;29.97;;
7231;SDS011;3657;49.630;11.018;2023-10-09T10:00:31;31.23;;;29.63;;
7231;SDS011;3657;49.630;11.018;2023-10-09T10:03:10;29.23;;;27.47;;
7231;SDS011;3657;49.630;11.018;2023-10-09T10:05:38;32.73;;;31.03;;
7231;SDS011;3657;49.630;11.018;2023-10-09T10:08:07;37.63;;;34.83;;
7231;SDS011;3657;49.630;11.018;2023-10-09T10:10:38;38.50;;;35.10;;
7231;SDS011;3657;49.630;11.018;2023-10-09T10:13:15;39.17;;;36.60;;
7231;SDS011;3657;49.630;11.018;2023-10-09T10:15:59;38.17;;;35.43;;
7231;SDS011;3657;49.630;11.018;2023-10-09T10:18:51;39.13;;;36.60;;
7231;SDS011;3657;49.630;11.018;2023-10-09T10:21:22;36.93;;;34.30;;
7231;SDS011;3657;49.630;11.018;2023-10-09T10:24:04;36.43;;;33.90;;
7231;SDS011;3657;49.630;11.018;2023-10-09T10:27:08;37.40;;;35.07;;
7231;SDS011;3657;49.630;11.018;2023-10-09T10:29:51;36.30;;;34.60;;
7231;SDS011;3657;49.630;11.018;2023-10-09T10:33:00;38.57;;;36.10;;
7231;SDS011;3657;49.630;11.018;2023-10-09T10:35:36;35.57;;;33.70;;
7231;SDS011;3657;49.630;11.018;2023-10-09T10:38:21;34.47;;;31.87;;
7231;SDS011;3657;49.630;11.018;2023-10-09T10:40:49;35.33;;;33.30;;
7231;SDS011;3657;49.630;11.018;2023-10-09T10:43:22;35.20;;;32.97;;
7231;SDS011;3657;49.630;11.018;2023-10-09T10:46:01;35.23;;;32.97;;
7231;SDS011;3657;49.630;11.018;2023-10-09T10:48:33;28.43;;;26.70;;
7231;SDS011;3657;49.630;11.018;2023-10-09T10:51:04;33.07;;;30.87;;
7231;SDS011;3657;49.630;11.018;2023-10-09T10:53:36;35.60;;;33.07;;
7231;SDS011;3657;49.630;11.018;2023-10-09T10:56:12;35.00;;;33.13;;
7231;SDS011;3657;49.630;11.018;2023-10-09T10:58:59;38.37;;;35.57;;
7231;SDS011;3657;49.630;11.018;2023-10-09T11:01:37;34.53;;;31.93;;
7231;SDS011;3657;49.630;11.018;2023-10-09T11:04:19;32.70;;;30.33;;
7231;SDS011;3657;49.630;11.018;2023-10-09T11:07:04;34.20;;;31.67;;
7231;SDS011;3657;49.630;11.018;2023-10-09T11:09:44;35.47;;;32.97;;
7231;SDS011;3657;49.630;11.018;2023-10-09T11:12:26;30.17;;;28.47;;
7231;SDS011;3657;49.630;11.018;2023-10-09T11:15:03;32.27;;;30.03;;
7231;SDS011;3657;49.630;11.018;2023-10-09T11:17:34;30.23;;;28.63;;
7231;SDS011;3657;49.630;11.018;2023-10-09T11:20:04;31.07;;;29.27;;
7231;SDS011;3657;49.630;11.018;2023-10-09T11:22:47;30.73;;;28.80;;
7231;SDS011;3657;49.630;11.018;2023-10-09T11:25:36;34.43;;;31.97;;
7231;SDS011;3657;49.630;11.018;2023-10-09T11:28:15;34.27;;;31.80;;
7231;SDS011;3657;49.630;11.018;2023-10-09T11:30:55;30.93;;;29.40;;
7231;SDS011;3657;49.630;11.018;2023-10-09T11:33:41;35.80;;;32.87;;
7231;SDS011;3657;49.630;11.018;2023-10-09T11:36:08;38.23;;;35.30;;
7231;SDS011;3657;49.630;11.018;2023-10-09T11:38:37;31.50;;;29.43;;
7231;SDS011;3657;49.630;11.018;2023-10-09T11:41:13;34.87;;;33.00;;
7231;SDS011;3657;49.630;11.018;2023-10-09T11:43:49;41.57;;;38.70;;
7231;SDS011;3657;49.630;11.018;2023-10-09T11:46:19;36.57;;;34.13;;
7231;SDS011;3657;49.630;11.018;2023-10-09T11:49:13;33.77;;;32.10;;
7231;SDS011;3657;49.630;11.018;2023-10-09T11:52:06;31.17;;;29.60;;
7231;SDS011;3657;49.630;11.018;2023-10-09T11:54:51;30.53;;;28.60;;
7231;SDS011;3657;49.630;11.018;2023-10-09T11:57:21;33.67;;;31.63;;
7231;SDS011;3657;49.630;11.018;2023-10-09T11:59:55;32.87;;;30.93;;
7231;SDS011;3657;49.630;11.018;2023-10-09T12:02:23;31.73;;;30.13;;
7231;SDS011;3657;49.630;11.018;2023-10-09T12:04:49;33.87;;;31.63;;
7231;SDS011;3657;49.630;11.018;2023-10-09T12:07:15;34.83;;;32.37;;
7231;SDS011;3657;49.630;11.018;2023-10-09T12:09:45;29.43;;;27.57;;
7231;SDS011;3657;49.630;11.018;2023-10-09T12:12:15;30.63;;;28.67;;
7231;SDS011;3657;49.630;11.018;2023-10-09T12:14:43;38.37;;;35.43;;
7231;SDS011;3657;49.630;11.018;2023-10-09T12:17:10;30.83;;;29.17;;
7231;SDS011;3657;49.630;11.018;2023-10-09T12:19:37;31.23;;;29.10;;
7231;SDS011;3657;49.630;11.018;2023-10-09T12:22:06;29.73;;;27.57;;
7231;SDS011;3657;49.630;11.018;2023-10-09T12:24:35;30.03;;;28.13;;
7231;SDS011;3657;49.630;11.018;2023-10-09T12:27:08;29.03;;;27.23;;
7231;SDS011;3657;49.630;11.018;2023-10-09T12:29:37;29.00;;;27.13;;
7231;SDS011;3657;49.630;11.018;2023-10-09T12:32:09;26.47;;;24.60;;
7231;SDS011;3657;49.630;11.018;2023-10-09T12:34:36;27.57;;;25.83;;
7231;SDS011;3657;49.630;11.018;2023-10-09T12:37:03;28.60;;;26.73;;
7231;SDS011;3657;49.630;11.018;2023-10-09T12:39:31;31.80;;;29.03;;
7231;SDS011;3657;49.630;11.018;2023-10-09T12:41:59;29.90;;;27.70;;
7231;SDS011;3657;49.630;11.018;2023-10-09T12:44:31;26.57;;;25.10;;
7231;SDS011;3657;49.630;11.018;2023-10-09T12:47:00;27.17;;;25.63;;
7231;SDS011;3657;49.630;11.018;2023-10-09T12:49:29;29.27;;;26.90;;
7231;SDS011;3657;49.630;11.018;2023-10-09T12:51:56;29.07;;;27.20;;
7231;SDS011;3657;49.630;11.018;2023-10-09T12:54:24;26.97;;;24.93;;
7231;SDS011;3657;49.630;11.018;2023-10-09T12:56:53;28.83;;;27.27;;
7231;SDS011;3657;49.630;11.018;2023-10-09T12:59:19;30.63;;;28.13;;
7231;SDS011;3657;49.630;11.018;2023-10-09T13:01:48;32.00;;;29.20;;
7231;SDS011;3657;49.630;11.018;2023-10-09T13:04:18;28.03;;;26.43;;
7231;SDS011;3657;49.630;11.018;2023-10-09T13:06:47;31.67;;;29.50;;
7231;SDS011;3657;49.630;11.018;2023-10-09T13:09:17;28.07;;;26.23;;
7231;SDS011;3657;49.630;11.018;2023-10-09T13:11:49;29.70;;;27.77;;
7231;SDS011;3657;49.630;11.018;2023-10-09T13:14:16;29.53;;;27.60;;
7231;SDS011;3657;49.630;11.018;2023-10-09T13:16:46;28.63;;;26.53;;
7231;SDS011;3657;49.630;11.018;2023-10-09T13:19:15;27.90;;;25.73;;
7231;SDS011;3657;49.630;11.018;2023-10-09T13:21:44;25.80;;;24.47;;
7231;SDS011;3657;49.630;11.018;2023-10-09T13:24:11;25.80;;;24.30;;
7231;SDS011;3657;49.630;11.018;2023-10-09T13:26:40;26.80;;;25.33;;
7231;SDS011;3657;49.630;11.018;2023-10-09T13:29:10;28.07;;;26.37;;
7231;SDS011;3657;49.630;11.018;2023-10-09T13:31:37;26.93;;;25.13;;
7231;SDS011;3657;49.630;11.018;2023-10-09T13:34:11;24.53;;;23.23;;
7231;SDS011;3657;49.630;11.018;2023-10-09T13:36:40;24.90;;;22.97;;
7231;SDS011;3657;49.630;11.018;2023-10-09T13:39:16;25.33;;;23.33;;
7231;SDS011;3657;49.630;11.018;2023-10-09T13:41:48;26.87;;;24.07;;
7231;SDS011;3657;49.630;11.018;2023-10-09T13:44:15;24.87;;;22.80;;
7231;SDS011;3657;49.630;11.018;2023-10-09T13:46:42;23.17;;;21.97;;
7231;SDS011;3657;49.630;11.018;2023-10-09T13:49:09;22.07;;;20.87;;
7231;SDS011;3657;49.630;11.018;2023-10-09T13:51:39;24.20;;;22.30;;
7231;SDS011;3657;49.630;11.018;2023-10-09T13:54:09;23.53;;;22.13;;
7231;SDS011;3657;49.630;11.018;2023-10-09T13:56:44;23.37;;;21.83;;
7231;SDS011;3657;49.630;11.018;2023-10-09T13:59:11;23.40;;;22.20;;
7231;SDS011;3657;49.630;11.018;2023-10-09T14:01:38;24.10;;;22.50;;
7231;SDS011;3657;49.630;11.018;2023-10-09T14:04:12;26.23;;;24.23;;
7231;SDS011;3657;49.630;11.018;2023-10-09T14:06:43;35.43;;;32.30;;
7231;SDS011;3657;49.630;11.018;2023-10-09T14:09:12;44.87;;;40.67;;
7231;SDS011;3657;49.630;11.018;2023-10-09T14:11:54;31.13;;;28.63;;
7231;SDS011;3657;49.630;11.018;2023-10-09T14:14:31;44.20;;;40.57;;
7231;SDS011;3657;49.630;11.018;2023-10-09T14:16:59;33.03;;;30.50;;
7231;SDS011;3657;49.630;11.018;2023-10-09T14:19:26;29.77;;;27.57;;
7231;SDS011;3657;49.630;11.018;2023-10-09T14:21:58;26.57;;;24.70;;
7231;SDS011;3657;49.630;11.018;2023-10-09T14:24:24;34.57;;;32.37;;
7231;SDS011;3657;49.630;11.018;2023-10-09T14:26:59;29.40;;;27.10;;
7231;SDS011;3657;49.630;11.018;2023-10-09T14:29:28;33.60;;;31.43;;
7231;SDS011;3657;49.630;11.018;2023-10-09T14:31:55;30.10;;;28.03;;
7231;SDS011;3657;49.630;11.018;2023-10-09T14:34:26;27.17;;;25.57;;
7231;SDS011;3657;49.630;11.018;2023-10-09T14:36:57;27.43;;;25.57;;
7231;SDS011;3657;49.630;11.018;2023-10-09T14:39:25;28.57;;;26.77;;
7231;SDS011;3657;49.630;11.018;2023-10-09T14:41:52;26.67;;;24.70;;
7231;SDS011;3657;49.630;11.018;2023-10-09T14:44:23;27.57;;;26.07;;
7231;SDS011;3657;49.630;11.018;2023-10-09T14:46:53;26.10;;;24.43;;
7231;SDS011;3657;49.630;11.018;2023-10-09T14:49:20;27.13;;;25.43;;
7231;SDS011;3657;49.630;11.018;2023-10-09T14:51:49;24.93;;;23.03;;
7231;SDS011;3657;49.630;11.018;2023-10-09T14:54:15;28.27;;;25.80;;
7231;SDS011;3657;49.630;11.018;2023-10-09T14:56:43;27.00;;;25.23;;
7231;SDS011;3657;49.630;11.018;2023-10-09T14:59:10;27.80;;;25.67;;
7231;SDS011;3657;49.630;11.018;2023-10-09T15:01:39;26.93;;;25.73;;
7231;SDS011;3657;49.630;11.018;2023-10-09T15:04:05;26.23;;;24.40;;
7231;SDS011;3657;49.630;11.018;2023-10-09T15:06:35;24.80;;;23.33;;
7231;SDS011;3657;49.630;11.018;2023-10-09T15:09:03;28.17;;;26.50;;
7231;SDS011;3657;49.630;11.018;2023-10-09T15:11:34;31.03;;;29.17;;